Time;durP1;ratioP1;P1;durP2;ratioP2;P2;SDS_P1;SDS_P2;PMS_P1;PMS_P2;Temp;Humidity;BMP_temperature;BMP_pressure;BME280_temperature;BME280_humidity;BME280_pressure;Samples;Min_cycle;Max_cycle;Signal;HPM_P1;HPM_P2
2022/03/10 00:00:45;;;;;;;26.95;16.90;;;;;;;-3.98;100.00;93607.66;2101606;28;20584;-82
2022/03/10 00:01:48;;;;;;;26.17;15.75;;;;;;;-3.92;100.00;93607.16;2089493;28;20021;-82
2022/03/10 00:02:49;;;;;;;29.90;17.10;;;;;;;-4.05;100.00;93610.75;2098065;28;20035;-81
2022/03/10 00:03:49;;;;;;;28.02;16.60;;;;;;;-4.07;100.00;93611.06;2095611;28;20027;-81
2022/03/10 00:04:50;;;;;;;29.08;16.80;;;;;;;-3.98;100.00;93607.66;2098138;28;20842;-82
2022/03/10 00:05:51;;;;;;;26.80;17.08;;;;;;;-3.96;100.00;93611.47;2091601;28;20028;-82
2022/03/10 00:06:52;;;;;;;25.48;15.65;;;;;;;-3.81;100.00;93607.59;2094601;28;20023;-82
2022/03/10 00:07:54;;;;;;;29.02;16.83;;;;;;;-3.82;100.00;93612.06;2097799;28;20075;-83
2022/03/10 00:08:55;;;;;;;27.77;15.18;;;;;;;-3.97;100.00;93612.56;2103701;28;20032;-83
2022/03/10 00:09:56;;;;;;;28.15;16.58;;;;;;;-3.93;100.00;93610.09;2108296;28;20030;-81
2022/03/10 00:10:57;;;;;;;28.98;17.23;;;;;;;-3.81;100.00;93615.44;2093443;28;20574;-81
2022/03/10 00:12:02;;;;;;;28.02;16.60;;;;;;;-3.76;100.00;93617.13;2099745;28;20121;-81
2022/03/10 00:13:03;;;;;;;30.40;16.88;;;;;;;-3.98;100.00;93610.28;2093697;28;20529;-82
2022/03/10 00:14:03;;;;;;;29.33;17.05;;;;;;;-3.86;100.00;93613.00;2079263;28;20032;-82
2022/03/10 00:15:10;;;;;;;30.27;16.83;;;;;;;-4.03;100.00;93623.50;2100887;28;20067;-82
2022/03/10 00:16:11;;;;;;;28.05;15.75;;;;;;;-4.07;100.00;93618.88;2103092;28;20031;-81
2022/03/10 00:17:12;;;;;;;25.75;15.60;;;;;;;-4.01;100.00;93623.94;2094287;28;20017;-82
2022/03/10 00:18:13;;;;;;;29.20;17.67;;;;;;;-4.12;100.00;93623.50;2095715;28;20016;-81
2022/03/10 00:19:16;;;;;;;28.50;15.82;;;;;;;-4.12;100.00;93626.13;2088124;28;20086;-82
2022/03/10 00:20:17;;;;;;;25.88;16.33;;;;;;;-4.19;100.00;93628.44;2096063;28;20530;-82
2022/03/10 00:21:19;;;;;;;26.60;15.40;;;;;;;-4.25;100.00;93624.47;2084957;28;20025;-81
2022/03/10 00:22:20;;;;;;;27.30;15.93;;;;;;;-4.13;100.00;93630.56;2083500;28;20029;-82
2022/03/10 00:23:21;;;;;;;29.05;16.77;;;;;;;-4.20;100.00;93625.06;2091937;28;20032;-83
2022/03/10 00:24:22;;;;;;;28.77;16.60;;;;;;;-4.05;100.00;93624.56;2095163;28;20028;-81
2022/03/10 00:25:23;;;;;;;26.98;15.48;;;;;;;-4.07;100.00;93621.50;2102201;28;20032;-81
2022/03/10 00:26:24;;;;;;;27.20;16.45;;;;;;;-4.12;100.00;93637.34;2094964;28;20032;-82
2022/03/10 00:27:25;;;;;;;30.50;16.17;;;;;;;-4.07;100.00;93633.78;2097439;28;20126;-81
2022/03/10 00:28:26;;;;;;;25.95;15.93;;;;;;;-4.22;100.00;93635.03;2092763;28;20031;-82
2022/03/10 00:29:28;;;;;;;30.08;17.17;;;;;;;-4.10;100.00;93637.00;2090048;28;20024;-81
2022/03/10 00:30:28;;;;;;;26.35;16.60;;;;;;;-4.09;100.00;93636.69;2082909;28;20021;-83
2022/03/10 00:31:29;;;;;;;26.33;16.70;;;;;;;-4.10;100.00;93639.63;2082070;28;20029;-83
2022/03/10 00:32:30;;;;;;;26.80;16.02;;;;;;;-4.09;100.00;93631.47;2084275;28;20064;-82
2022/03/10 00:33:32;;;;;;;28.90;16.38;;;;;;;-4.07;100.00;93636.41;2078718;28;20033;-82
2022/03/10 00:34:33;;;;;;;26.67;16.30;;;;;;;-4.18;100.00;93633.34;2081343;28;20116;-81
2022/03/10 00:35:34;;;;;;;28.10;16.75;;;;;;;-4.05;100.00;93632.38;2096381;28;20411;-82
2022/03/10 00:36:35;;;;;;;26.40;17.20;;;;;;;-4.03;100.00;93642.53;2094361;28;20051;-81
2022/03/10 00:37:37;;;;;;;25.88;16.00;;;;;;;-4.20;100.00;93632.13;2087182;28;20119;-81
2022/03/10 00:38:38;;;;;;;29.40;15.65;;;;;;;-4.04;100.00;93630.53;2094825;28;20110;-81
2022/03/10 00:39:39;;;;;;;24.88;16.02;;;;;;;-4.14;100.00;93638.72;2083250;28;20125;-81
2022/03/10 00:40:40;;;;;;;29.92;17.20;;;;;;;-4.25;100.00;93645.34;2086595;28;20763;-82
2022/03/10 00:41:40;;;;;;;27.23;15.95;;;;;;;-4.24;100.00;93645.03;2084237;28;20032;-82
2022/03/10 00:42:42;;;;;;;27.13;16.20;;;;;;;-4.20;100.00;93647.78;2084378;28;20021;-81
2022/03/10 00:43:43;;;;;;;29.20;15.77;;;;;;;-4.40;100.00;93644.72;2099183;28;20497;-82
2022/03/10 00:44:44;;;;;;;24.73;15.93;;;;;;;-4.37;100.00;93648.56;2094339;28;20016;-82
2022/03/10 00:45:45;;;;;;;28.65;16.98;;;;;;;-4.34;100.00;93647.97;2093282;28;20031;-82
2022/03/10 00:46:46;;;;;;;29.75;17.95;;;;;;;-4.36;100.00;93650.84;2091362;28;20489;-81
2022/03/10 00:47:47;;;;;;;24.30;16.33;;;;;;;-4.41;100.00;93647.66;2080678;28;20458;-83
2022/03/10 00:48:48;;;;;;;29.42;17.00;;;;;;;-4.42;100.00;93643.50;2088969;28;20048;-82
2022/03/10 00:49:49;;;;;;;26.00;15.80;;;;;;;-4.39;100.00;93648.09;2091826;28;20020;-81
2022/03/10 00:50:50;;;;;;;25.45;15.50;;;;;;;-4.33;100.00;93644.25;2087352;28;20079;-80
2022/03/10 00:51:51;;;;;;;32.00;17.20;;;;;;;-4.34;100.00;93643.50;2097487;28;20107;-82
2022/03/10 00:52:52;;;;;;;24.55;15.50;;;;;;;-4.16;100.00;93643.47;2094374;28;20024;-81
2022/03/10 00:53:54;;;;;;;28.85;17.30;;;;;;;-4.21;100.00;93641.81;2101674;28;20048;-82
2022/03/10 00:54:55;;;;;;;28.73;15.90;;;;;;;-4.27;100.00;93645.63;2100749;28;20032;-81
2022/03/10 00:55:56;;;;;;;32.67;16.90;;;;;;;-4.22;100.00;93645.47;2097253;28;20055;-83
2022/03/10 00:56:56;;;;;;;29.40;16.45;;;;;;;-4.38;100.00;93647.81;2098344;28;20484;-82
2022/03/10 00:57:57;;;;;;;28.45;15.80;;;;;;;-4.39;100.00;93650.69;2096261;28;20021;-81
2022/03/10 00:58:58;;;;;;;28.67;16.92;;;;;;;-4.45;100.00;93650.09;2089063;28;20103;-82
2022/03/10 00:59:59;;;;;;;26.25;16.75;;;;;;;-4.50;100.00;93647.66;2080401;28;20024;-82
2022/03/10 01:01:00;;;;;;;28.45;17.50;;;;;;;-4.44;100.00;93645.66;2089249;28;20049;-82
2022/03/10 01:02:01;;;;;;;28.92;16.55;;;;;;;-4.53;100.00;93650.09;2093429;28;20086;-82
2022/03/10 01:03:03;;;;;;;30.25;16.90;;;;;;;-4.50;100.00;93652.09;2097103;28;20449;-82
2022/03/10 01:04:04;;;;;;;29.80;17.73;;;;;;;-4.50;100.00;93649.50;2105770;28;20020;-82
2022/03/10 01:05:07;;;;;;;27.70;16.15;;;;;;;-4.58;100.00;93651.78;2088937;28;20689;-82
2022/03/10 01:06:08;;;;;;;29.00;17.60;;;;;;;-4.59;100.00;93647.66;2081758;28;20486;-84
2022/03/10 01:07:09;;;;;;;28.58;16.40;;;;;;;-4.52;100.00;93646.41;2082198;28;20084;-82
2022/03/10 01:08:10;;;;;;;28.77;16.50;;;;;;;-4.58;100.00;93646.56;2088651;28;20035;-81
2022/03/10 01:09:11;;;;;;;30.15;17.13;;;;;;;-4.57;100.00;93655.16;2092149;28;20100;-82
2022/03/10 01:10:14;;;;;;;28.05;17.33;;;;;;;-4.66;100.00;93646.56;2090001;28;20023;-81
2022/03/10 01:11:15;;;;;;;28.98;16.85;;;;;;;-4.34;100.00;93653.19;2083610;28;20544;-82
2022/03/10 01:12:16;;;;;;;31.58;16.73;;;;;;;-4.47;100.00;93646.28;2100034;28;20126;-82
2022/03/10 01:13:18;;;;;;;26.33;15.57;;;;;;;-4.48;100.00;93647.34;2107765;28;20036;-82
2022/03/10 01:14:20;;;;;;;29.35;17.63;;;;;;;-4.49;100.00;93649.19;2097387;28;20178;-82
2022/03/10 01:15:24;;;;;;;28.15;16.60;;;;;;;-4.48;100.00;93655.91;2095540;28;20040;-81
2022/03/10 01:16:25;;;;;;;26.52;16.38;;;;;;;-4.49;100.00;93656.25;2094133;28;20055;-81
2022/03/10 01:17:26;;;;;;;27.20;16.52;;;;;;;-4.32;100.00;93648.41;2098122;28;20097;-81
2022/03/10 01:18:27;;;;;;;28.80;16.58;;;;;;;-4.55;100.00;93647.81;2098687;28;20020;-80
2022/03/10 01:19:29;;;;;;;30.13;17.45;;;;;;;-4.49;100.00;93648.41;2097032;28;20020;-80
2022/03/10 01:20:30;;;;;;;24.67;15.60;;;;;;;-4.53;100.00;93650.88;2091353;28;20535;-81
2022/03/10 01:21:31;;;;;;;30.25;17.08;;;;;;;-4.51;100.00;93645.34;2101030;28;20106;-82
2022/03/10 01:22:34;;;;;;;30.67;17.42;;;;;;;-4.53;100.00;93639.66;2105465;27;20020;-81
2022/03/10 01:23:35;;;;;;;25.88;16.45;;;;;;;-4.51;100.00;93640.91;2097737;28;20091;-82
2022/03/10 01:24:36;;;;;;;26.50;16.48;;;;;;;-4.57;100.00;93640.28;2090421;28;20127;-83
2022/03/10 01:25:37;;;;;;;26.38;15.68;;;;;;;-4.63;100.00;93633.69;2099233;28;20031;-82
2022/03/10 01:26:38;;;;;;;25.90;16.08;;;;;;;-4.63;100.00;93638.91;2103740;28;20028;-82
2022/03/10 01:27:39;;;;;;;27.00;16.23;;;;;;;-4.56;100.00;93639.22;2096353;28;20485;-82
2022/03/10 01:28:40;;;;;;;29.70;17.20;;;;;;;-4.60;100.00;93630.47;2091752;28;20379;-82
2022/03/10 01:29:41;;;;;;;28.20;16.83;;;;;;;-4.54;100.00;93631.06;2097873;28;20024;-82
2022/03/10 01:30:42;;;;;;;28.00;16.95;;;;;;;-4.57;100.00;93642.88;2097506;28;20020;-81
2022/03/10 01:31:44;;;;;;;28.20;16.75;;;;;;;-4.67;100.00;93639.81;2098305;28;20016;-82
2022/03/10 01:32:44;;;;;;;28.52;15.77;;;;;;;-4.58;100.00;93638.75;2105463;28;20344;-82
2022/03/10 01:33:45;;;;;;;29.00;17.63;;;;;;;-4.70;100.00;93635.97;2099176;28;20020;-81
2022/03/10 01:34:46;;;;;;;28.85;16.38;;;;;;;-4.66;100.00;93631.69;2107020;28;20020;-82
2022/03/10 01:35:47;;;;;;;30.95;17.13;;;;;;;-4.67;100.00;93635.38;2109859;28;20012;-82
2022/03/10 01:36:48;;;;;;;26.73;16.52;;;;;;;-4.77;100.00;93640.91;2096927;28;20496;-82
2022/03/10 01:37:49;;;;;;;27.65;16.60;;;;;;;-4.67;100.00;93635.38;2090786;28;20107;-82
2022/03/10 01:38:50;;;;;;;28.45;16.15;;;;;;;-4.64;100.00;93637.38;2090815;28;20626;-82
2022/03/10 01:39:51;;;;;;;26.40;16.90;;;;;;;-4.48;100.00;93631.69;2090755;28;20044;-81
2022/03/10 01:40:52;;;;;;;30.23;17.20;;;;;;;-4.54;100.00;93632.94;2105398;28;20024;-81
2022/03/10 01:41:53;;;;;;;30.80;16.45;;;;;;;-4.59;100.00;93636.47;2109571;28;20051;-81
2022/03/10 01:42:54;;;;;;;27.05;16.67;;;;;;;-4.68;100.00;93633.84;2113176;27;20460;-82
2022/03/10 01:43:59;;;;;;;27.73;15.65;;;;;;;-4.70;100.00;93635.97;2104886;28;20051;-81
2022/03/10 01:45:01;;;;;;;27.67;15.95;;;;;;;-4.77;100.00;93640.91;2111039;28;20030;-82
2022/03/10 01:46:02;;;;;;;29.50;17.33;;;;;;;-4.72;100.00;93632.94;2108985;28;20396;-82
2022/03/10 01:47:05;;;;;;;29.95;16.75;;;;;;;-4.79;100.00;93637.81;2105444;28;20050;-81
2022/03/10 01:48:06;;;;;;;28.95;16.73;;;;;;;-4.70;100.00;93635.97;2113663;27;20112;-81
2022/03/10 01:49:07;;;;;;;29.65;17.13;;;;;;;-4.78;100.00;93644.59;2114023;27;20060;-81
2022/03/10 01:50:11;;;;;;;31.25;17.90;;;;;;;-4.89;100.00;93635.53;2102982;28;20100;-82
2022/03/10 01:51:12;;;;;;;27.73;16.77;;;;;;;-4.78;100.00;93639.38;2106740;27;20016;-81
2022/03/10 01:52:15;;;;;;;27.33;16.42;;;;;;;-4.74;100.00;93629.88;2097048;28;20037;-80
2022/03/10 01:53:17;;;;;;;32.95;16.25;;;;;;;-4.73;100.00;93631.41;2097786;28;20670;-80
2022/03/10 01:54:18;;;;;;;26.50;15.45;;;;;;;-4.82;100.00;93631.41;2097275;28;20393;-81
2022/03/10 01:55:20;;;;;;;30.45;17.55;;;;;;;-4.97;100.00;93620.63;2090122;28;20374;-82
2022/03/10 01:56:23;;;;;;;28.90;17.25;;;;;;;-4.71;100.00;93636.28;2087140;28;20791;-81
2022/03/10 01:57:25;;;;;;;29.05;16.75;;;;;;;-4.66;100.00;93630.94;2091457;28;20060;-82
2022/03/10 01:58:26;;;;;;;31.10;17.25;;;;;;;-4.74;100.00;93632.47;2092222;28;20086;-81
2022/03/10 01:59:27;;;;;;;30.25;17.63;;;;;;;-4.73;100.00;93636.63;2091538;28;20052;-82
2022/03/10 02:00:28;;;;;;;29.20;17.05;;;;;;;-4.84;100.00;93630.16;2087348;28;20703;-81
2022/03/10 02:01:31;;;;;;;27.65;17.30;;;;;;;-4.78;100.00;93638.59;2104641;28;20017;-82
2022/03/10 02:02:32;;;;;;;27.88;16.23;;;;;;;-4.83;100.00;93629.88;2103633;28;20016;-83
2022/03/10 02:03:33;;;;;;;27.58;16.70;;;;;;;-4.94;100.00;93631.22;2098854;28;20103;-81
2022/03/10 02:04:34;;;;;;;30.30;17.02;;;;;;;-4.91;100.00;93625.41;2096767;28;20028;-82
2022/03/10 02:05:35;;;;;;;29.58;17.52;;;;;;;-4.93;100.00;93632.00;2092972;28;20032;-81
2022/03/10 02:06:36;;;;;;;31.27;16.73;;;;;;;-4.86;100.00;93630.47;2104009;28;20456;-82
2022/03/10 02:10:19;;;;;;;24.20;14.98;;;;;;;-5.01;100.00;93622.31;2115363;27;20030;-80
2022/03/10 02:11:20;;;;;;;26.00;15.90;;;;;;;-4.97;100.00;93620.63;2098983;28;20486;-82
2022/03/10 02:12:21;;;;;;;26.50;16.05;;;;;;;-5.00;100.00;93622.03;2088893;28;20068;-81
2022/03/10 02:13:22;;;;;;;27.65;16.33;;;;;;;-5.08;100.00;93620.94;2099082;28;20024;-81
2022/03/10 02:17:22;;;;;;;26.98;14.70;;;;;;;-4.85;100.00;93629.38;2105280;28;20020;-82
2022/03/10 02:18:23;;;;;;;31.25;15.20;;;;;;;-4.95;100.00;93624.47;2101039;28;20110;-81
2022/03/10 02:19:24;;;;;;;24.70;15.30;;;;;;;-4.93;100.00;93626.78;2105149;28;20030;-81
2022/03/10 02:20:25;;;;;;;28.75;16.20;;;;;;;-4.97;100.00;93629.22;2107286;28;20031;-80
2022/03/10 02:21:27;;;;;;;28.30;16.58;;;;;;;-5.02;100.00;93633.81;2099407;28;20017;-82
2022/03/10 02:22:28;;;;;;;28.70;16.17;;;;;;;-5.02;100.00;93626.00;2084026;28;20021;-82
2022/03/10 02:23:29;;;;;;;27.75;16.77;;;;;;;-5.07;100.00;93622.47;2092821;28;20017;-82
2022/03/10 02:24:30;;;;;;;27.33;16.05;;;;;;;-4.95;100.00;93628.94;2083938;28;20119;-82
2022/03/10 02:25:31;;;;;;;31.65;16.98;;;;;;;-4.99;100.00;93623.56;2090888;28;20028;-81
2022/03/10 02:26:32;;;;;;;25.05;15.55;;;;;;;-4.97;100.00;93628.47;2096067;28;20066;-82
2022/03/10 02:27:33;;;;;;;29.80;17.25;;;;;;;-4.98;100.00;93629.53;2096220;28;20024;-82
2022/03/10 02:28:34;;;;;;;26.70;16.13;;;;;;;-4.97;100.00;93623.25;2097408;28;20150;-82
2022/03/10 02:29:35;;;;;;;26.08;17.13;;;;;;;-5.01;100.00;93624.94;2092728;28;20082;-81
2022/03/10 02:30:37;;;;;;;28.15;16.45;;;;;;;-5.04;100.00;93621.09;2089586;28;20028;-81
2022/03/10 02:31:40;;;;;;;26.25;15.50;;;;;;;-5.12;100.00;93614.03;2084575;28;20022;-82
2022/03/10 02:32:41;;;;;;;32.97;16.77;;;;;;;-5.16;100.00;93628.75;2092618;28;20021;-82
2022/03/10 02:33:43;;;;;;;29.65;16.95;;;;;;;-5.18;100.00;93623.84;2082458;28;20021;-82
2022/03/10 02:34:44;;;;;;;27.60;16.27;;;;;;;-5.19;100.00;93624.13;2089868;28;20111;-83
2022/03/10 02:35:46;;;;;;;27.67;16.02;;;;;;;-5.28;100.00;93624.13;2091453;28;20021;-80
2022/03/10 02:36:47;;;;;;;27.48;15.68;;;;;;;-5.25;100.00;93617.53;2104851;28;20027;-81
2022/03/10 02:37:48;;;;;;;30.42;16.63;;;;;;;-5.23;100.00;93608.34;2101814;28;20020;-82
2022/03/10 02:38:49;;;;;;;28.15;16.95;;;;;;;-5.19;100.00;93609.25;2094559;28;20048;-80
2022/03/10 02:39:50;;;;;;;28.83;16.77;;;;;;;-5.19;100.00;93619.69;2090636;28;20506;-82
2022/03/10 02:40:51;;;;;;;29.73;16.67;;;;;;;-5.18;100.00;93617.84;2084627;28;20505;-82
2022/03/10 02:41:52;;;;;;;25.17;15.90;;;;;;;-5.17;100.00;93611.59;2084504;28;20049;-81
2022/03/10 02:42:54;;;;;;;26.45;15.25;;;;;;;-5.12;100.00;93601.78;2088662;28;20017;-82
2022/03/10 02:43:55;;;;;;;27.48;16.85;;;;;;;-5.17;100.00;93608.97;2096945;28;20462;-83
2022/03/10 02:44:56;;;;;;;27.20;15.50;;;;;;;-5.03;100.00;93612.22;2090497;28;20043;-82
2022/03/10 02:45:57;;;;;;;29.55;16.55;;;;;;;-5.09;100.00;93613.44;2088585;28;20044;-81
2022/03/10 02:46:58;;;;;;;26.42;15.88;;;;;;;-5.10;100.00;93617.09;2096860;28;20021;-81
2022/03/10 02:47:59;;;;;;;28.80;16.27;;;;;;;-5.11;100.00;93608.50;2088113;28;20147;-82
2022/03/10 02:49:00;;;;;;;25.17;15.27;;;;;;;-5.17;100.00;93614.19;2090608;28;20075;-82
2022/03/10 02:50:03;;;;;;;30.42;15.82;;;;;;;-5.11;100.00;93610.34;2098857;28;20115;-83
2022/03/10 02:51:04;;;;;;;25.45;15.77;;;;;;;-5.10;100.00;93610.03;2090853;28;20021;-81
2022/03/10 02:52:05;;;;;;;23.75;15.02;;;;;;;-5.07;100.00;93606.84;2105236;28;20062;-82
2022/03/10 02:53:06;;;;;;;30.15;15.38;;;;;;;-5.14;100.00;93609.13;2103485;28;20023;-82
2022/03/10 02:54:07;;;;;;;28.08;16.08;;;;;;;-5.18;100.00;93605.59;2088515;28;20687;-81
2022/03/10 02:55:08;;;;;;;27.48;15.93;;;;;;;-5.06;100.00;93605.75;2082355;28;20025;-81
2022/03/10 02:56:09;;;;;;;29.35;16.33;;;;;;;-5.07;100.00;93603.47;2094804;28;20104;-81
2022/03/10 02:57:17;;;;;;;26.65;15.70;;;;;;;-4.94;100.00;93601.78;2097616;28;20776;-82
2022/03/10 02:58:18;;;;;;;28.23;15.63;;;;;;;-4.90;100.00;93600.88;2090321;28;20061;-81
2022/03/10 02:59:19;;;;;;;29.85;16.73;;;;;;;-4.91;100.00;93609.00;2098119;28;20040;-80
2022/03/10 03:00:20;;;;;;;26.73;15.35;;;;;;;-4.96;100.00;93604.72;2104719;28;20562;-83
2022/03/10 03:01:21;;;;;;;23.58;15.88;;;;;;;-5.00;100.00;93608.22;2103368;28;20019;-81
2022/03/10 03:02:22;;;;;;;26.95;16.08;;;;;;;-4.96;100.00;93611.75;2100892;28;20016;-82
2022/03/10 03:03:23;;;;;;;26.08;15.90;;;;;;;-5.12;100.00;93603.63;2096619;28;20024;-81
2022/03/10 03:04:25;;;;;;;24.23;14.85;;;;;;;-5.17;100.00;93606.38;2086435;28;20056;-82
2022/03/10 03:05:26;;;;;;;25.08;15.60;;;;;;;-5.27;100.00;93602.19;2080632;28;20063;-82
2022/03/10 03:06:27;;;;;;;25.15;15.80;;;;;;;-5.17;100.00;93596.72;2091704;28;20050;-82
2022/03/10 03:07:28;;;;;;;24.60;15.27;;;;;;;-5.18;100.00;93604.81;2094533;28;20146;-82
2022/03/10 03:08:29;;;;;;;26.63;15.32;;;;;;;-5.15;100.00;93606.81;2100496;28;20032;-81
2022/03/10 03:09:29;;;;;;;27.13;15.68;;;;;;;-5.23;100.00;93603.13;2104712;28;20037;-81
2022/03/10 03:10:36;;;;;;;29.08;16.15;;;;;;;-5.20;100.00;93606.97;2097111;28;20111;-83
2022/03/10 03:11:37;;;;;;;30.33;15.45;;;;;;;-5.22;100.00;93607.28;2095227;28;20016;-83
2022/03/10 03:12:46;;;;;;;26.83;15.75;;;;;;;-5.20;100.00;93606.97;2104112;28;20027;-82
2022/03/10 03:13:47;;;;;;;25.80;15.98;;;;;;;-5.33;100.00;93604.19;2107244;27;20066;-82
2022/03/10 03:14:47;;;;;;;26.40;15.48;;;;;;;-5.29;100.00;93604.34;2103825;28;20081;-81
2022/03/10 03:15:48;;;;;;;28.60;15.77;;;;;;;-5.20;100.00;93607.75;2087959;28;20028;-83
2022/03/10 03:16:54;;;;;;;25.80;16.15;;;;;;;-5.17;100.00;93601.94;2088065;28;20032;-82
2022/03/10 03:17:55;;;;;;;24.52;15.18;;;;;;;-5.25;100.00;93605.28;2104634;28;20020;-82
2022/03/10 03:18:56;;;;;;;28.92;15.98;;;;;;;-5.21;100.00;93600.22;2106891;28;20027;-81
2022/03/10 03:19:57;;;;;;;24.50;14.90;;;;;;;-5.22;100.00;93607.28;2096283;28;20070;-82
2022/03/10 03:20:58;;;;;;;24.27;15.35;;;;;;;-5.23;100.00;93608.34;2100532;28;20491;-82
2022/03/10 03:21:59;;;;;;;27.23;15.13;;;;;;;-5.26;100.00;93608.19;2096124;28;20478;-82
2022/03/10 03:23:00;;;;;;;28.27;16.00;;;;;;;-5.29;100.00;93606.97;2092012;28;20108;-83
2022/03/10 03:24:02;;;;;;;28.63;15.05;;;;;;;-5.35;100.00;93606.34;2089457;28;20024;-82
2022/03/10 03:25:03;;;;;;;26.77;16.25;;;;;;;-5.45;100.00;93617.03;2100751;28;20051;-82
2022/03/10 03:26:04;;;;;;;26.75;15.82;;;;;;;-5.36;100.00;93614.44;2100928;28;20120;-81
2022/03/10 03:27:05;;;;;;;28.42;16.27;;;;;;;-5.39;100.00;93615.81;2100242;28;20020;-83
2022/03/10 03:28:08;;;;;;;24.95;14.73;;;;;;;-5.35;100.00;93610.78;2091768;28;20452;-82
2022/03/10 03:29:10;;;;;;;25.33;15.57;;;;;;;-5.35;100.00;93616.00;2102959;28;20024;-83
2022/03/10 03:30:11;;;;;;;29.77;15.40;;;;;;;-5.37;100.00;93603.25;2098322;28;20063;-83
2022/03/10 03:31:12;;;;;;;25.85;15.65;;;;;;;-5.40;100.00;93608.31;2108433;28;20134;-82
2022/03/10 03:32:14;;;;;;;27.25;15.57;;;;;;;-5.39;100.00;93615.81;2108948;28;20491;-82
2022/03/10 03:33:15;;;;;;;24.65;15.50;;;;;;;-5.38;100.00;93612.16;2101408;28;20016;-81
2022/03/10 03:34:16;;;;;;;25.05;14.73;;;;;;;-5.46;100.00;93614.72;2091945;28;20017;-83
2022/03/10 03:35:17;;;;;;;26.55;14.82;;;;;;;-5.43;100.00;93609.69;2099349;28;20023;-83
2022/03/10 03:36:17;;;;;;;26.27;15.52;;;;;;;-5.39;100.00;93609.84;2091140;28;20779;-82
2022/03/10 03:37:18;;;;;;;25.95;15.63;;;;;;;-5.38;100.00;93612.16;2099881;28;20044;-82
2022/03/10 03:38:19;;;;;;;27.30;15.48;;;;;;;-5.46;100.00;93615.50;2106598;28;20044;-81
2022/03/10 03:39:20;;;;;;;26.45;15.88;;;;;;;-5.55;100.00;93611.34;2086037;28;20024;-82
2022/03/10 03:40:21;;;;;;;26.63;15.85;;;;;;;-5.49;100.00;93618.69;2107961;28;20015;-82
2022/03/10 03:41:22;;;;;;;24.83;15.35;;;;;;;-5.49;100.00;93616.09;2106429;28;20107;-81
2022/03/10 03:42:23;;;;;;;29.15;16.73;;;;;;;-5.38;100.00;93614.75;2099853;28;20051;-82
2022/03/10 03:43:24;;;;;;;26.92;15.60;;;;;;;-5.43;100.00;93620.09;2096082;28;20016;-83
2022/03/10 03:44:25;;;;;;;24.90;15.07;;;;;;;-5.45;100.00;93616.25;2091900;28;20036;-81
2022/03/10 03:45:27;;;;;;;27.20;16.13;;;;;;;-5.61;100.00;93614.09;2108481;28;20598;-83
2022/03/10 03:46:29;;;;;;;27.65;16.00;;;;;;;-5.64;100.00;93612.06;2099618;28;20078;-82
2022/03/10 03:47:30;;;;;;;23.85;14.73;;;;;;;-5.71;100.00;93616.94;2109375;28;20016;-81
2022/03/10 03:48:32;;;;;;;26.23;15.95;;;;;;;-5.63;100.00;93618.81;2106998;28;20111;-83
2022/03/10 03:49:32;;;;;;;27.13;15.65;;;;;;;-5.58;100.00;93618.66;2101363;28;20023;-82
2022/03/10 03:50:33;;;;;;;25.35;14.95;;;;;;;-5.59;100.00;93613.78;2107200;28;20043;-81
2022/03/10 03:51:35;;;;;;;25.17;15.35;;;;;;;-5.55;100.00;93614.72;2106916;28;20027;-83
2022/03/10 03:52:36;;;;;;;26.88;15.45;;;;;;;-5.48;100.00;93617.66;2097967;28;20417;-83
2022/03/10 03:53:37;;;;;;;28.75;16.67;;;;;;;-5.61;100.00;93619.28;2098189;28;20036;-82
2022/03/10 03:54:38;;;;;;;26.48;14.85;;;;;;;-5.53;100.00;93622.22;2097951;28;20063;-83
2022/03/10 03:55:39;;;;;;;24.40;15.65;;;;;;;-5.52;100.00;93621.16;2097781;28;20147;-81
2022/03/10 03:56:40;;;;;;;28.33;16.45;;;;;;;-5.58;100.00;93613.47;2100128;28;20020;-83
2022/03/10 03:57:41;;;;;;;29.85;16.60;;;;;;;-5.63;100.00;93626.63;2091285;28;20052;-82
2022/03/10 03:58:43;;;;;;;27.75;15.55;;;;;;;-5.64;100.00;93624.31;2089956;28;20021;-82
2022/03/10 03:59:43;;;;;;;30.17;15.88;;;;;;;-5.55;100.00;93616.53;2096382;28;20118;-81
2022/03/10 04:00:44;;;;;;;28.00;16.05;;;;;;;-5.54;100.00;93618.84;2095737;28;20397;-81
2022/03/10 04:01:45;;;;;;;24.67;15.07;;;;;;;-5.57;100.00;93620.22;2096026;28;20017;-81
2022/03/10 04:02:47;;;;;;;27.10;15.50;;;;;;;-5.61;100.00;93624.50;2092138;28;20024;-81
2022/03/10 04:03:48;;;;;;;27.92;15.95;;;;;;;-5.59;100.00;93618.97;2096474;28;20053;-81
2022/03/10 04:04:49;;;;;;;27.98;16.25;;;;;;;-5.49;100.00;93623.91;2100160;28;20020;-82
2022/03/10 04:05:50;;;;;;;29.25;16.48;;;;;;;-5.56;100.00;93621.00;2100011;28;20033;-82
2022/03/10 04:06:51;;;;;;;25.75;14.93;;;;;;;-5.62;100.00;93628.19;2092577;28;20029;-82
2022/03/10 04:07:52;;;;;;;26.58;15.80;;;;;;;-5.64;100.00;93619.88;2091672;28;20104;-83
2022/03/10 04:08:53;;;;;;;24.63;15.13;;;;;;;-5.62;100.00;93628.19;2095537;28;20039;-82
2022/03/10 04:09:54;;;;;;;26.85;15.57;;;;;;;-5.59;100.00;93630.16;2093382;28;20424;-82
2022/03/10 04:10:55;;;;;;;23.23;14.10;;;;;;;-5.59;100.00;93624.19;2095552;28;20023;-81
2022/03/10 04:11:56;;;;;;;25.10;14.65;;;;;;;-5.70;100.00;93631.50;2096559;28;20039;-82
2022/03/10 04:12:57;;;;;;;26.50;16.25;;;;;;;-5.70;100.00;93621.09;2089337;28;20060;-81
2022/03/10 04:13:58;;;;;;;25.95;15.90;;;;;;;-5.70;100.00;93631.50;2106507;28;20012;-83
2022/03/10 04:14:59;;;;;;;27.00;15.30;;;;;;;-5.69;100.00;93629.69;2105614;28;20085;-82
2022/03/10 04:16:00;;;;;;;27.17;15.75;;;;;;;-5.58;100.00;93634.28;2097417;28;20025;-81
2022/03/10 04:17:02;;;;;;;26.55;16.00;;;;;;;-5.72;100.00;93635.47;2095230;28;20059;-83
2022/03/10 04:18:03;;;;;;;27.80;15.45;;;;;;;-5.67;100.00;93636.09;2096860;28;20028;-82
2022/03/10 04:19:05;;;;;;;27.75;15.73;;;;;;;-5.64;100.00;93637.34;2089643;28;20079;-83
2022/03/10 04:20:08;;;;;;;27.05;16.00;;;;;;;-5.73;100.00;93637.31;2098999;28;20029;-81
2022/03/10 04:21:09;;;;;;;28.33;15.32;;;;;;;-5.68;100.00;93631.22;2096477;28;20028;-81
2022/03/10 04:22:10;;;;;;;26.55;15.02;;;;;;;-5.71;100.00;93631.78;2089177;28;20036;-81
2022/03/10 04:23:13;;;;;;;26.98;15.10;;;;;;;-5.72;100.00;93635.47;2089372;28;20064;-83
2022/03/10 04:24:14;;;;;;;27.63;15.75;;;;;;;-5.72;100.00;93628.44;2096077;28;20033;-82
2022/03/10 04:25:15;;;;;;;29.63;16.23;;;;;;;-5.73;100.00;93634.72;2108036;28;20072;-81
2022/03/10 04:26:16;;;;;;;27.60;15.85;;;;;;;-5.70;100.00;93631.50;2105948;28;20088;-81
2022/03/10 04:27:17;;;;;;;29.70;16.13;;;;;;;-5.79;100.00;93628.13;2097670;28;20447;-81
2022/03/10 04:28:18;;;;;;;29.00;16.23;;;;;;;-5.79;100.00;93638.53;2097629;28;20028;-82
2022/03/10 04:29:19;;;;;;;25.80;16.05;;;;;;;-5.82;100.00;93633.91;2101003;28;20024;-83
2022/03/10 04:30:23;;;;;;;27.55;15.68;;;;;;;-5.82;100.00;93626.09;2100409;28;20407;-82
2022/03/10 04:31:24;;;;;;;29.40;16.05;;;;;;;-5.84;100.00;93621.22;2099321;28;20095;-81
2022/03/10 04:32:25;;;;;;;25.92;15.23;;;;;;;-5.75;100.00;93625.66;2097703;28;20786;-82
2022/03/10 04:33:26;;;;;;;27.52;16.33;;;;;;;-5.76;100.00;93629.34;2095575;28;20050;-82
2022/03/10 04:34:27;;;;;;;24.55;14.38;;;;;;;-5.85;100.00;93629.28;2091587;28;20056;-82
2022/03/10 04:35:29;;;;;;;29.85;15.77;;;;;;;-5.90;100.00;93624.22;2088932;28;20489;-81
2022/03/10 04:36:30;;;;;;;29.75;15.50;;;;;;;-5.89;100.00;93628.34;2092095;28;20516;-82
2022/03/10 04:37:31;;;;;;;22.98;14.73;;;;;;;-5.85;100.00;93629.28;2101339;28;20115;-81
2022/03/10 04:38:33;;;;;;;23.77;15.25;;;;;;;-5.80;100.00;93625.78;2097610;28;20016;-83
2022/03/10 04:39:39;;;;;;;28.73;16.48;;;;;;;-5.80;100.00;93628.41;2090915;28;20027;-81
2022/03/10 04:40:52;;;;;;;27.38;15.07;;;;;;;-5.85;100.00;93624.84;2096406;28;20103;-81
2022/03/10 04:41:53;;;;;;;28.05;14.95;;;;;;;-5.84;100.00;93623.00;2101585;28;20012;-81
2022/03/10 04:42:54;;;;;;;30.05;14.95;;;;;;;-5.82;100.00;93626.88;2097661;28;20017;-81
2022/03/10 04:43:56;;;;;;;28.02;15.60;;;;;;;-5.92;100.00;93636.81;2099611;28;20579;-83
2022/03/10 04:44:57;;;;;;;26.77;15.02;;;;;;;-5.83;100.00;93627.94;2093567;28;20541;-81